createdAt,value
2022-10-12T00:01:35.343Z,10.70
2022-10-12T00:04:02.472Z,10.70
2022-10-12T00:06:29.405Z,10.70
2022-10-12T00:08:56.285Z,10.70
2022-10-12T00:11:29.022Z,10.70
2022-10-12T00:13:56.416Z,10.60
2022-10-12T00:16:25.972Z,10.70
2022-10-12T00:18:54.270Z,10.70
2022-10-12T00:21:21.375Z,10.70
2022-10-12T00:23:49.001Z,10.70
2022-10-12T00:26:21.129Z,10.70
2022-10-12T00:28:54.022Z,10.70
2022-10-12T00:31:22.125Z,10.70
2022-10-12T00:33:49.680Z,10.70
2022-10-12T00:36:25.632Z,10.70
2022-10-12T00:38:54.346Z,10.80
2022-10-12T00:41:25.033Z,10.80
2022-10-12T00:43:57.976Z,10.80
2022-10-12T00:46:42.295Z,10.90
2022-10-12T00:49:19.757Z,10.80
2022-10-12T00:51:53.667Z,10.80
2022-10-12T00:54:27.271Z,10.80
2022-10-12T00:56:56.654Z,10.80
2022-10-12T00:59:28.507Z,10.80
2022-10-12T01:01:56.209Z,10.70
2022-10-12T01:04:24.224Z,10.70
2022-10-12T01:06:51.905Z,10.60
2022-10-12T01:09:20.764Z,10.60
2022-10-12T01:11:48.150Z,10.60
2022-10-12T01:14:15.397Z,10.50
2022-10-12T01:16:47.904Z,10.50
2022-10-12T01:19:35.925Z,10.40
2022-10-12T01:22:06.264Z,10.40
2022-10-12T01:24:49.408Z,10.30
2022-10-12T01:27:51.220Z,10.30
2022-10-12T01:30:38.128Z,10.30
2022-10-12T01:33:23.315Z,10.30
2022-10-12T01:36:17.816Z,10.20
2022-10-12T01:39:04.672Z,10.20
2022-10-12T01:41:50.444Z,10.10
2022-10-12T01:44:25.593Z,10.10
2022-10-12T01:46:57.488Z,10.10
2022-10-12T01:49:30.634Z,10.10
2022-10-12T01:52:15.673Z,10.10
2022-10-12T01:54:45.505Z,10.10
2022-10-12T01:58:00.484Z,10.00
2022-10-12T02:00:27.370Z,10.00
2022-10-12T02:03:17.415Z,10.00
2022-10-12T02:06:05.310Z,10.00
2022-10-12T02:08:48.636Z,9.90
2022-10-12T02:11:18.373Z,9.90
2022-10-12T02:13:50.943Z,9.90
2022-10-12T02:16:20.930Z,9.90
2022-10-12T02:18:52.019Z,9.80
2022-10-12T02:21:24.580Z,9.80
2022-10-12T02:23:54.345Z,9.80
2022-10-12T02:26:22.124Z,9.80
2022-10-12T02:28:51.046Z,9.80
2022-10-12T02:31:38.066Z,9.80
2022-10-12T02:34:22.678Z,9.80
2022-10-12T02:37:07.533Z,9.80
2022-10-12T02:39:47.747Z,9.80
2022-10-12T02:42:20.213Z,9.80
2022-10-12T02:44:49.921Z,9.80
2022-10-12T02:47:18.177Z,9.80
2022-10-12T02:49:46.852Z,9.80
2022-10-12T02:52:13.744Z,9.80
2022-10-12T02:54:40.745Z,9.80
2022-10-12T02:57:07.605Z,9.70
2022-10-12T02:59:34.620Z,9.70
2022-10-12T03:02:01.494Z,9.70
2022-10-12T03:04:28.425Z,9.70
2022-10-12T03:06:55.333Z,9.70
2022-10-12T03:09:22.295Z,9.60
2022-10-12T03:11:49.188Z,9.70
2022-10-12T03:14:17.483Z,9.70
2022-10-12T03:16:46.589Z,9.60
2022-10-12T03:19:13.643Z,9.70
2022-10-12T03:21:41.179Z,9.70
2022-10-12T03:24:08.043Z,9.70
2022-10-12T03:26:34.880Z,9.60
2022-10-12T03:29:01.758Z,9.60
2022-10-12T03:31:28.746Z,9.60
2022-10-12T03:33:55.603Z,9.50
2022-10-12T03:36:22.512Z,9.50
2022-10-12T03:38:49.374Z,9.40
2022-10-12T03:41:16.217Z,9.30
2022-10-12T03:43:43.115Z,9.20
2022-10-12T03:46:09.981Z,9.20
2022-10-12T03:48:37.038Z,9.20
2022-10-12T03:51:04.128Z,9.20
2022-10-12T03:53:31.619Z,9.20
2022-10-12T03:55:58.747Z,9.20
2022-10-12T03:58:25.685Z,9.10
2022-10-12T04:00:55.887Z,9.20
2022-10-12T04:03:22.818Z,9.20
2022-10-12T04:05:57.132Z,9.10
2022-10-12T04:08:26.860Z,9.10
2022-10-12T04:10:54.329Z,9.00
2022-10-12T04:13:21.308Z,9.00
2022-10-12T04:15:48.188Z,8.90
2022-10-12T04:18:15.129Z,8.90
2022-10-12T04:20:42.035Z,8.90
2022-10-12T04:23:08.949Z,8.80
2022-10-12T04:25:36.794Z,8.80
2022-10-12T04:28:03.683Z,8.70
2022-10-12T04:30:30.730Z,8.70
2022-10-12T04:32:57.584Z,8.80
2022-10-12T04:35:24.481Z,8.80
2022-10-12T04:37:51.331Z,8.70
2022-10-12T04:40:18.286Z,8.70
2022-10-12T04:42:45.174Z,8.70
2022-10-12T04:45:12.026Z,8.70
2022-10-12T04:47:39.392Z,8.60
2022-10-12T04:50:07.093Z,8.60
2022-10-12T04:52:34.113Z,8.60
2022-10-12T04:55:00.953Z,8.60
2022-10-12T04:57:27.877Z,8.50
2022-10-12T04:59:54.742Z,8.50
2022-10-12T05:02:21.628Z,8.50
2022-10-12T05:04:48.571Z,8.40
2022-10-12T05:07:15.594Z,8.40
2022-10-12T05:09:42.451Z,8.40
2022-10-12T05:12:09.486Z,8.40
2022-10-12T05:14:36.419Z,8.40
2022-10-12T05:17:03.453Z,8.40
2022-10-12T05:19:30.400Z,8.30
2022-10-12T05:21:57.296Z,8.30
2022-10-12T05:24:24.210Z,8.30
2022-10-12T05:26:51.093Z,8.30
2022-10-12T05:29:18.018Z,8.30
2022-10-12T05:31:44.854Z,8.30
2022-10-12T05:34:11.762Z,8.30
2022-10-12T05:36:38.609Z,8.30
2022-10-12T05:39:05.457Z,8.30
2022-10-12T05:41:32.347Z,8.30
2022-10-12T05:43:59.209Z,8.30
2022-10-12T05:46:26.084Z,8.30
2022-10-12T05:48:53.956Z,8.30
2022-10-12T05:51:24.110Z,8.30
2022-10-12T05:53:53.479Z,8.30
2022-10-12T05:56:20.512Z,8.30
2022-10-12T05:58:47.417Z,8.20
2022-10-12T06:01:14.763Z,8.20
2022-10-12T06:03:41.657Z,8.20
2022-10-12T06:06:11.699Z,8.20
2022-10-12T06:08:38.573Z,8.20
2022-10-12T06:11:05.856Z,8.20
2022-10-12T06:13:34.103Z,8.20
2022-10-12T06:16:01.083Z,8.20
2022-10-12T06:18:30.296Z,8.30
2022-10-12T06:21:21.359Z,8.30
2022-10-12T06:23:44.960Z,8.40
2022-10-12T06:26:16.429Z,8.40
2022-10-12T06:28:44.482Z,8.50
2022-10-12T06:31:14.239Z,8.50
2022-10-12T06:33:43.187Z,8.60
2022-10-12T06:36:11.163Z,8.70
2022-10-12T06:38:41.268Z,8.80
2022-10-12T06:41:09.185Z,9.10
2022-10-12T06:43:39.228Z,9.40
2022-10-12T06:46:12.489Z,10.00
2022-10-12T06:48:41.525Z,10.70
2022-10-12T06:51:08.462Z,11.20
2022-10-12T06:53:35.726Z,11.30
2022-10-12T06:56:10.093Z,11.10
2022-10-12T06:58:38.680Z,11.00
2022-10-12T07:01:08.587Z,11.00
2022-10-12T07:03:35.516Z,11.00
2022-10-12T07:06:14.648Z,10.80
2022-10-12T07:08:42.206Z,10.70
2022-10-12T07:11:11.901Z,10.60
2022-10-12T07:13:39.513Z,10.70
2022-10-12T07:16:07.291Z,10.90
2022-10-12T07:18:36.570Z,11.20
2022-10-12T07:21:03.576Z,11.40
2022-10-12T07:23:35.031Z,11.50
2022-10-12T07:26:02.946Z,11.40
2022-10-12T07:28:30.258Z,11.40
2022-10-12T07:31:09.676Z,11.50
2022-10-12T07:33:41.248Z,11.70
2022-10-12T07:36:21.343Z,12.00
2022-10-12T07:38:52.788Z,12.10
2022-10-12T07:41:22.793Z,12.20
2022-10-12T07:43:56.693Z,12.40
2022-10-12T07:46:26.030Z,12.90
2022-10-12T07:48:54.188Z,13.60
2022-10-12T07:51:22.219Z,14.90
2022-10-12T07:53:54.224Z,15.60
2022-10-12T07:56:21.220Z,16.60
2022-10-12T07:58:55.309Z,18.20
2022-10-12T08:01:24.602Z,19.60
2022-10-12T08:04:01.251Z,20.90
2022-10-12T08:06:33.595Z,21.00
2022-10-12T08:09:03.060Z,20.70
2022-10-12T08:11:37.331Z,19.60
2022-10-12T08:14:05.384Z,19.00
2022-10-12T08:16:33.507Z,18.90
2022-10-12T08:19:03.484Z,19.20
2022-10-12T08:21:33.451Z,20.00
2022-10-12T08:24:03.495Z,21.40
2022-10-12T08:26:31.493Z,22.70
2022-10-12T08:29:01.859Z,23.70
2022-10-12T08:31:28.849Z,23.80
2022-10-12T08:33:57.572Z,24.30
2022-10-12T08:36:25.649Z,24.20
2022-10-12T08:38:55.259Z,23.70
2022-10-12T08:41:47.218Z,23.70
2022-10-12T08:44:52.238Z,22.40
2022-10-12T08:47:34.880Z,20.90
2022-10-12T08:50:05.227Z,19.80
2022-10-12T08:53:01.137Z,19.50
2022-10-12T08:55:43.836Z,20.00
2022-10-12T08:58:33.992Z,21.30
2022-10-12T09:01:20.063Z,22.30
2022-10-12T09:04:15.684Z,22.20
2022-10-12T09:06:57.847Z,21.70
2022-10-12T09:09:43.225Z,20.70
2022-10-12T09:12:42.948Z,19.90
2022-10-12T09:15:28.811Z,19.40
2022-10-12T09:17:59.947Z,19.60
2022-10-12T09:20:32.032Z,19.30
2022-10-12T09:23:16.017Z,18.70
2022-10-12T09:25:48.956Z,18.20
2022-10-12T09:28:27.914Z,17.80
2022-10-12T09:31:35.411Z,17.40
2022-10-12T09:34:06.490Z,17.40
2022-10-12T09:36:37.127Z,17.50
2022-10-12T09:39:20.184Z,17.70
2022-10-12T09:41:49.149Z,17.90
2022-10-12T09:44:26.853Z,18.00
2022-10-12T09:47:00.386Z,18.40
2022-10-12T09:49:53.236Z,19.00
2022-10-12T09:52:26.822Z,19.70
2022-10-12T09:55:02.550Z,21.10
2022-10-12T09:57:41.279Z,22.90
2022-10-12T10:00:33.732Z,24.90
2022-10-12T10:03:03.869Z,26.30
2022-10-12T10:05:36.702Z,26.70
2022-10-12T10:08:39.022Z,26.30
2022-10-12T10:11:15.849Z,25.10
2022-10-12T10:13:53.922Z,25.10
2022-10-12T10:16:24.547Z,25.80
2022-10-12T10:18:59.470Z,26.70
2022-10-12T10:21:34.466Z,27.80
2022-10-12T10:24:05.692Z,28.30
2022-10-12T10:26:55.044Z,27.80
2022-10-12T10:29:22.047Z,27.30
2022-10-12T10:32:23.717Z,26.60
2022-10-12T10:35:13.663Z,25.70
2022-10-12T10:37:55.762Z,24.60
2022-10-12T10:40:33.631Z,23.70
2022-10-12T10:43:07.003Z,22.90
2022-10-12T10:46:01.151Z,22.30
2022-10-12T10:48:52.941Z,21.90
2022-10-12T10:51:20.165Z,21.70
2022-10-12T10:53:49.655Z,21.80
2022-10-12T10:56:31.609Z,21.80
2022-10-12T10:59:09.704Z,21.70
2022-10-12T11:01:46.139Z,21.60
2022-10-12T11:04:44.736Z,21.40
2022-10-12T11:07:34.107Z,21.00
2022-10-12T11:10:09.384Z,21.00
2022-10-12T11:12:42.781Z,21.10
2022-10-12T11:15:24.032Z,21.40
2022-10-12T11:17:57.786Z,21.90
2022-10-12T11:20:34.354Z,22.60
2022-10-12T11:23:45.302Z,23.30
2022-10-12T11:26:38.026Z,23.60
2022-10-12T11:29:12.232Z,23.00
2022-10-12T11:32:12.010Z,23.10
2022-10-12T11:35:00.903Z,23.10
2022-10-12T11:37:45.147Z,23.10
2022-10-12T11:41:00.337Z,23.00
2022-10-12T11:43:36.159Z,22.80
2022-10-12T11:46:08.256Z,22.70
2022-10-12T11:49:00.447Z,22.60
2022-10-12T11:51:27.375Z,22.40
2022-10-12T11:54:01.476Z,22.00
2022-10-12T11:56:44.894Z,21.70
2022-10-12T11:59:39.257Z,21.50
2022-10-12T12:02:18.240Z,21.20
2022-10-12T12:04:47.224Z,21.00
2022-10-12T12:07:36.850Z,21.00
2022-10-12T12:10:34.938Z,21.20
2022-10-12T12:13:15.203Z,21.30
2022-10-12T12:15:49.682Z,21.20
2022-10-12T12:18:24.018Z,21.20
2022-10-12T12:21:01.985Z,21.20
2022-10-12T12:23:51.328Z,21.20
2022-10-12T12:26:22.615Z,20.90
2022-10-12T12:29:08.493Z,20.70
2022-10-12T12:31:35.599Z,20.60
2022-10-12T12:34:07.224Z,20.50
2022-10-12T12:36:40.905Z,20.50
2022-10-12T12:39:21.456Z,20.40
2022-10-12T12:42:01.613Z,20.60
2022-10-12T12:44:41.680Z,20.60
2022-10-12T12:47:43.342Z,20.70
2022-10-12T12:50:23.011Z,20.90
2022-10-12T12:52:58.056Z,21.00
2022-10-12T12:56:00.286Z,20.90
2022-10-12T12:58:45.254Z,20.90
2022-10-12T13:01:51.857Z,20.80
2022-10-12T13:04:55.421Z,20.80
2022-10-12T13:07:38.241Z,20.50
2022-10-12T13:10:09.980Z,20.50
2022-10-12T13:13:14.383Z,20.50
2022-10-12T13:15:53.400Z,20.50
2022-10-12T13:18:47.663Z,20.40
2022-10-12T13:21:38.886Z,20.30
2022-10-12T13:24:17.773Z,20.00
2022-10-12T13:26:55.408Z,19.80
2022-10-12T13:29:32.862Z,19.50
2022-10-12T13:32:06.251Z,19.30
2022-10-12T13:34:45.671Z,19.20
2022-10-12T13:37:16.988Z,19.10
2022-10-12T13:39:47.253Z,18.90
2022-10-12T13:42:22.110Z,18.80
2022-10-12T13:44:50.335Z,18.70
2022-10-12T13:47:23.197Z,18.70
2022-10-12T13:49:53.429Z,18.80
2022-10-12T13:52:32.437Z,19.00
2022-10-12T13:55:16.628Z,19.30
2022-10-12T13:57:50.485Z,19.60
2022-10-12T14:00:17.880Z,19.70
2022-10-12T14:02:59.798Z,19.80
2022-10-12T14:05:29.903Z,19.70
2022-10-12T14:08:02.040Z,19.70
2022-10-12T14:10:34.902Z,19.70
2022-10-12T14:13:05.969Z,19.50
2022-10-12T14:15:38.345Z,19.40
2022-10-12T14:18:44.137Z,19.00
2022-10-12T14:21:33.354Z,18.70
2022-10-12T14:24:09.587Z,18.40
2022-10-12T14:26:52.344Z,18.10
2022-10-12T14:29:46.431Z,18.00
2022-10-12T14:32:14.300Z,18.00
2022-10-12T14:34:45.264Z,18.10
2022-10-12T14:37:17.127Z,18.20
2022-10-12T14:39:46.493Z,18.30
2022-10-12T14:42:27.281Z,18.40
2022-10-12T14:44:54.602Z,18.50
2022-10-12T14:47:38.005Z,18.50
2022-10-12T14:50:08.694Z,18.40
2022-10-12T14:52:43.896Z,18.30
2022-10-12T14:55:24.417Z,18.20
2022-10-12T14:57:52.418Z,18.20
2022-10-12T15:00:33.964Z,18.20
2022-10-12T15:03:04.190Z,18.30
2022-10-12T15:05:32.707Z,18.30
2022-10-12T15:08:09.131Z,18.30
2022-10-12T15:10:37.413Z,18.20
2022-10-12T15:13:07.499Z,18.10
2022-10-12T15:15:47.727Z,17.90
2022-10-12T15:18:14.696Z,17.80
2022-10-12T15:20:49.167Z,17.70
2022-10-12T15:23:22.809Z,17.60
2022-10-12T15:25:59.892Z,17.60
2022-10-12T15:28:29.883Z,17.60
2022-10-12T15:31:16.844Z,17.60
2022-10-12T15:33:47.879Z,17.70
2022-10-12T15:36:14.934Z,17.80
2022-10-12T15:38:42.873Z,17.80
2022-10-12T15:41:17.539Z,17.80
2022-10-12T15:43:44.595Z,17.80
2022-10-12T15:46:12.425Z,17.80
2022-10-12T15:48:41.909Z,17.90
2022-10-12T15:51:23.192Z,17.90
2022-10-12T15:53:54.410Z,17.90
2022-10-12T15:56:23.407Z,17.80
2022-10-12T15:58:51.502Z,17.70
2022-10-12T16:01:20.460Z,17.50
2022-10-12T16:03:48.822Z,17.40
2022-10-12T16:06:21.896Z,17.30
2022-10-12T16:08:50.917Z,17.30
2022-10-12T16:11:19.439Z,17.40
2022-10-12T16:13:54.032Z,17.30
2022-10-12T16:16:22.690Z,17.20
2022-10-12T16:18:53.990Z,17.10
2022-10-12T16:21:21.353Z,17.00
2022-10-12T16:23:49.356Z,16.90
2022-10-12T16:26:17.392Z,16.90
2022-10-12T16:28:46.485Z,16.80
2022-10-12T16:31:17.964Z,16.80
2022-10-12T16:33:48.249Z,16.70
2022-10-12T16:36:17.456Z,16.60
2022-10-12T16:38:46.467Z,16.50
2022-10-12T16:41:16.659Z,16.40
2022-10-12T16:43:46.835Z,16.30
2022-10-12T16:46:16.869Z,16.20
2022-10-12T16:48:44.598Z,16.10
2022-10-12T16:51:13.147Z,16.10
2022-10-12T16:53:42.471Z,16.00
2022-10-12T16:56:10.036Z,16.00
2022-10-12T16:58:40.172Z,15.90
2022-10-12T17:01:12.259Z,15.90
2022-10-12T17:03:39.366Z,15.90
2022-10-12T17:06:12.434Z,15.90
2022-10-12T17:08:39.509Z,15.80
2022-10-12T17:11:13.535Z,15.80
2022-10-12T17:13:46.610Z,15.80
2022-10-12T17:16:47.680Z,15.80
2022-10-12T17:19:29.927Z,15.70
2022-10-12T17:21:59.556Z,15.60
2022-10-12T17:24:28.786Z,15.60
2022-10-12T17:26:56.667Z,15.60
2022-10-12T17:29:25.332Z,15.50
2022-10-12T17:31:53.933Z,15.50
2022-10-12T17:34:30.150Z,15.40
2022-10-12T17:37:01.671Z,15.30
2022-10-12T17:39:41.810Z,15.30
2022-10-12T17:42:09.595Z,15.20
2022-10-12T17:44:36.408Z,15.20
2022-10-12T17:47:04.337Z,15.20
2022-10-12T17:49:31.925Z,15.20
2022-10-12T17:51:58.772Z,15.20
2022-10-12T17:54:26.712Z,15.20
2022-10-12T17:56:55.628Z,15.10
2022-10-12T17:59:23.077Z,15.00
2022-10-12T18:01:51.192Z,15.00
2022-10-12T18:04:18.391Z,15.00
2022-10-12T18:06:45.893Z,15.00
2022-10-12T18:09:13.132Z,14.90
2022-10-12T18:11:41.258Z,14.80
2022-10-12T18:14:10.555Z,14.80
2022-10-12T18:16:38.016Z,14.80
2022-10-12T18:19:06.284Z,14.70
2022-10-12T18:21:34.162Z,14.70
2022-10-12T18:24:07.053Z,14.70
2022-10-12T18:26:35.024Z,14.60
2022-10-12T18:29:02.324Z,14.50
2022-10-12T18:31:30.011Z,14.50
2022-10-12T18:33:58.059Z,14.40
2022-10-12T18:36:26.353Z,14.40
2022-10-12T18:38:53.941Z,14.30
2022-10-12T18:41:22.602Z,14.30
2022-10-12T18:43:55.460Z,14.30
2022-10-12T18:46:22.357Z,14.20
2022-10-12T18:48:49.429Z,14.20
2022-10-12T18:51:31.959Z,14.10
2022-10-12T18:54:00.536Z,14.10
2022-10-12T18:56:30.228Z,14.10
2022-10-12T18:58:59.732Z,14.00
2022-10-12T19:01:28.203Z,14.00
2022-10-12T19:03:57.380Z,13.90
2022-10-12T19:06:27.422Z,13.90
2022-10-12T19:08:58.092Z,13.90
2022-10-12T19:11:27.097Z,13.90
2022-10-12T19:14:05.577Z,13.90
2022-10-12T19:16:32.619Z,13.90
2022-10-12T19:19:02.177Z,13.90
2022-10-12T19:21:29.716Z,13.90
2022-10-12T19:23:57.036Z,13.90
2022-10-12T19:26:27.432Z,13.90
2022-10-12T19:28:56.535Z,13.90
2022-10-12T19:31:30.199Z,13.90
2022-10-12T19:33:59.597Z,13.90
2022-10-12T19:36:28.465Z,13.80
2022-10-12T19:38:59.972Z,13.80
2022-10-12T19:41:28.619Z,13.80
2022-10-12T19:43:56.601Z,13.90
2022-10-12T19:46:23.999Z,13.90
2022-10-12T19:48:52.993Z,13.90
2022-10-12T19:51:21.504Z,13.90
2022-10-12T19:53:48.561Z,14.00
2022-10-12T19:56:18.825Z,14.00
2022-10-12T19:58:46.013Z,14.00
2022-10-12T20:01:15.876Z,14.00
2022-10-12T20:03:47.593Z,14.00
2022-10-12T20:06:15.393Z,14.10
2022-10-12T20:08:43.916Z,14.20
2022-10-12T20:11:17.668Z,14.20
2022-10-12T20:13:46.773Z,14.20
2022-10-12T20:16:15.094Z,14.30
2022-10-12T20:18:42.148Z,14.30
2022-10-12T20:21:10.614Z,14.40
2022-10-12T20:23:39.267Z,14.50
2022-10-12T20:26:08.587Z,14.50
2022-10-12T20:28:36.981Z,14.50
2022-10-12T20:31:05.738Z,14.60
2022-10-12T20:33:34.498Z,14.60
2022-10-12T20:36:01.717Z,14.70
2022-10-12T20:38:28.724Z,14.70
2022-10-12T20:41:06.959Z,14.70
2022-10-12T20:43:34.228Z,14.70
2022-10-12T20:46:05.838Z,14.80
2022-10-12T20:48:34.175Z,14.80
2022-10-12T20:51:04.694Z,14.80
2022-10-12T20:53:31.607Z,14.80
2022-10-12T20:55:58.434Z,14.80
2022-10-12T20:58:27.875Z,14.80
2022-10-12T21:01:09.564Z,14.80
2022-10-12T21:03:37.119Z,14.80
2022-10-12T21:06:07.091Z,14.80
2022-10-12T21:08:34.593Z,14.80
2022-10-12T21:11:02.136Z,14.80
2022-10-12T21:13:34.179Z,14.90
2022-10-12T21:16:01.264Z,14.90
2022-10-12T21:18:32.849Z,14.90
2022-10-12T21:21:17.004Z,14.90
2022-10-12T21:23:46.084Z,14.90
2022-10-12T21:26:16.671Z,14.90
2022-10-12T21:28:44.300Z,14.90
2022-10-12T21:31:12.197Z,14.90
2022-10-12T21:33:39.528Z,14.90
2022-10-12T21:36:07.988Z,14.90
2022-10-12T21:38:35.133Z,14.90
2022-10-12T21:41:02.131Z,14.90
2022-10-12T21:43:28.977Z,14.90
2022-10-12T21:46:05.231Z,14.90
2022-10-12T21:48:32.838Z,14.90
2022-10-12T21:51:00.871Z,14.90
2022-10-12T21:53:27.892Z,15.00
2022-10-12T21:55:54.809Z,15.00
2022-10-12T21:58:21.916Z,15.00
2022-10-12T22:00:48.973Z,15.00
2022-10-12T22:03:16.039Z,15.00
2022-10-12T22:05:44.452Z,15.00
2022-10-12T22:08:11.658Z,15.00
2022-10-12T22:10:39.813Z,15.10
2022-10-12T22:13:07.300Z,15.10
2022-10-12T22:15:35.521Z,15.00
2022-10-12T22:18:02.512Z,15.10
2022-10-12T22:20:29.361Z,15.10
2022-10-12T22:22:56.249Z,15.10
2022-10-12T22:25:23.101Z,15.00
2022-10-12T22:27:49.968Z,15.00
2022-10-12T22:30:16.916Z,15.00
2022-10-12T22:32:43.796Z,15.00
2022-10-12T22:35:10.640Z,15.00
2022-10-12T22:37:37.553Z,15.00
2022-10-12T22:40:05.156Z,15.00
2022-10-12T22:42:32.029Z,15.00
2022-10-12T22:44:58.900Z,15.00
2022-10-12T22:47:25.832Z,14.90
2022-10-12T22:49:52.697Z,14.90
2022-10-12T22:52:19.859Z,14.90
2022-10-12T22:54:47.138Z,14.90
2022-10-12T22:57:14.003Z,14.90
2022-10-12T22:59:40.880Z,14.90
2022-10-12T23:02:07.739Z,14.90
2022-10-12T23:04:34.635Z,14.90
2022-10-12T23:07:01.611Z,14.80
2022-10-12T23:09:28.493Z,14.80
2022-10-12T23:11:55.419Z,14.80
2022-10-12T23:14:22.345Z,14.80
2022-10-12T23:16:49.200Z,14.80
2022-10-12T23:19:16.064Z,14.80
2022-10-12T23:21:43.181Z,14.80
2022-10-12T23:24:10.424Z,14.70
2022-10-12T23:26:37.277Z,14.70
2022-10-12T23:29:04.240Z,14.70
2022-10-12T23:31:32.347Z,14.70
2022-10-12T23:34:01.506Z,14.70
2022-10-12T23:36:28.843Z,14.70
2022-10-12T23:38:56.197Z,14.70
2022-10-12T23:41:23.035Z,14.70
2022-10-12T23:43:49.980Z,14.70
2022-10-12T23:46:16.791Z,14.70
2022-10-12T23:48:43.680Z,14.70
2022-10-12T23:51:11.387Z,14.70
2022-10-12T23:53:39.101Z,14.70
2022-10-12T23:56:06.750Z,14.70
2022-10-12T23:58:34.204Z,14.60
